sensor_id;sensor_type;location;lat;lon;timestamp;temperature;humidity
43225;DHT22;28834;48.720;9.208;2022-09-09T00:04:28;14.10;99.90
43225;DHT22;28834;48.720;9.208;2022-09-09T00:09:46;14.00;99.90
43225;DHT22;28834;48.720;9.208;2022-09-09T00:15:12;14.10;99.90
43225;DHT22;28834;48.720;9.208;2022-09-09T00:17:51;14.10;99.90
43225;DHT22;28834;48.720;9.208;2022-09-09T00:20:34;14.10;99.90
43225;DHT22;28834;48.720;9.208;2022-09-09T00:23:12;14.10;99.90
43225;DHT22;28834;48.720;9.208;2022-09-09T00:26:03;14.10;99.90
43225;DHT22;28834;48.720;9.208;2022-09-09T00:28:31;14.10;99.90
43225;DHT22;28834;48.720;9.208;2022-09-09T00:31:12;14.10;99.90
43225;DHT22;28834;48.720;9.208;2022-09-09T00:33:38;14.10;99.90
43225;DHT22;28834;48.720;9.208;2022-09-09T00:36:13;14.10;99.90
43225;DHT22;28834;48.720;9.208;2022-09-09T00:39:04;14.00;99.90
43225;DHT22;28834;48.720;9.208;2022-09-09T00:41:35;14.00;99.90
43225;DHT22;28834;48.720;9.208;2022-09-09T00:44:32;14.00;99.90
43225;DHT22;28834;48.720;9.208;2022-09-09T00:57:32;14.00;99.90
43225;DHT22;28834;48.720;9.208;2022-09-09T01:00:22;14.10;99.90
43225;DHT22;28834;48.720;9.208;2022-09-09T01:08:00;14.10;99.90
43225;DHT22;28834;48.720;9.208;2022-09-09T01:10:46;14.10;99.90
43225;DHT22;28834;48.720;9.208;2022-09-09T01:13:24;14.10;99.90
43225;DHT22;28834;48.720;9.208;2022-09-09T01:15:50;14.10;99.90
43225;DHT22;28834;48.720;9.208;2022-09-09T01:18:21;14.20;99.90
43225;DHT22;28834;48.720;9.208;2022-09-09T01:21:09;14.20;99.90
43225;DHT22;28834;48.720;9.208;2022-09-09T01:26:30;14.20;99.90
43225;DHT22;28834;48.720;9.208;2022-09-09T01:28:58;14.20;99.90
43225;DHT22;28834;48.720;9.208;2022-09-09T01:31:31;14.20;99.90
43225;DHT22;28834;48.720;9.208;2022-09-09T01:33:58;14.20;99.90
43225;DHT22;28834;48.720;9.208;2022-09-09T01:36:35;14.20;99.90
43225;DHT22;28834;48.720;9.208;2022-09-09T01:39:03;14.10;99.90
43225;DHT22;28834;48.720;9.208;2022-09-09T01:41:29;14.10;99.90
43225;DHT22;28834;48.720;9.208;2022-09-09T01:43:55;14.10;99.90
43225;DHT22;28834;48.720;9.208;2022-09-09T01:46:22;14.10;99.90
43225;DHT22;28834;48.720;9.208;2022-09-09T01:48:50;14.20;99.90
43225;DHT22;28834;48.720;9.208;2022-09-09T01:51:16;14.20;99.90
43225;DHT22;28834;48.720;9.208;2022-09-09T01:53:43;14.10;99.90
43225;DHT22;28834;48.720;9.208;2022-09-09T02:04:21;14.20;99.90
43225;DHT22;28834;48.720;9.208;2022-09-09T02:06:48;14.20;99.90
43225;DHT22;28834;48.720;9.208;2022-09-09T02:09:19;14.20;99.90
43225;DHT22;28834;48.720;9.208;2022-09-09T02:11:47;14.20;99.90
43225;DHT22;28834;48.720;9.208;2022-09-09T02:14:21;14.30;99.90
43225;DHT22;28834;48.720;9.208;2022-09-09T02:16:52;14.30;99.90
43225;DHT22;28834;48.720;9.208;2022-09-09T02:19:32;14.40;99.90
43225;DHT22;28834;48.720;9.208;2022-09-09T02:21:59;14.30;99.90
43225;DHT22;28834;48.720;9.208;2022-09-09T02:24:27;14.30;99.90
43225;DHT22;28834;48.720;9.208;2022-09-09T02:26:55;14.30;99.90
43225;DHT22;28834;48.720;9.208;2022-09-09T02:29:34;14.30;99.90
43225;DHT22;28834;48.720;9.208;2022-09-09T02:32:05;14.30;99.90
43225;DHT22;28834;48.720;9.208;2022-09-09T02:34:36;14.30;99.90
43225;DHT22;28834;48.720;9.208;2022-09-09T02:37:06;14.20;99.90
43225;DHT22;28834;48.720;9.208;2022-09-09T02:39:33;14.20;99.90
43225;DHT22;28834;48.720;9.208;2022-09-09T02:41:59;14.10;99.90
43225;DHT22;28834;48.720;9.208;2022-09-09T02:44:25;14.00;99.90
43225;DHT22;28834;48.720;9.208;2022-09-09T02:47:42;13.90;99.90
43225;DHT22;28834;48.720;9.208;2022-09-09T02:52:40;13.70;99.90
43225;DHT22;28834;48.720;9.208;2022-09-09T02:55:15;13.60;99.90
43225;DHT22;28834;48.720;9.208;2022-09-09T02:57:42;13.70;99.90
43225;DHT22;28834;48.720;9.208;2022-09-09T03:00:09;13.70;99.90
43225;DHT22;28834;48.720;9.208;2022-09-09T03:02:36;13.60;99.90
43225;DHT22;28834;48.720;9.208;2022-09-09T03:05:02;13.60;99.90
43225;DHT22;28834;48.720;9.208;2022-09-09T03:07:28;13.50;99.90
43225;DHT22;28834;48.720;9.208;2022-09-09T03:09:53;13.60;99.90
43225;DHT22;28834;48.720;9.208;2022-09-09T03:12:20;13.60;99.90
43225;DHT22;28834;48.720;9.208;2022-09-09T03:14:45;13.70;99.90
43225;DHT22;28834;48.720;9.208;2022-09-09T03:17:12;13.70;99.90
43225;DHT22;28834;48.720;9.208;2022-09-09T03:19:38;13.70;99.90
43225;DHT22;28834;48.720;9.208;2022-09-09T03:22:04;13.80;99.90
43225;DHT22;28834;48.720;9.208;2022-09-09T03:24:30;13.90;99.90
43225;DHT22;28834;48.720;9.208;2022-09-09T03:26:55;13.90;99.90
43225;DHT22;28834;48.720;9.208;2022-09-09T03:29:21;14.00;99.90
43225;DHT22;28834;48.720;9.208;2022-09-09T03:31:47;14.00;99.90
43225;DHT22;28834;48.720;9.208;2022-09-09T03:34:12;14.00;99.90
43225;DHT22;28834;48.720;9.208;2022-09-09T03:36:39;14.00;99.90
43225;DHT22;28834;48.720;9.208;2022-09-09T03:39:06;14.00;99.90
43225;DHT22;28834;48.720;9.208;2022-09-09T03:41:31;14.00;99.90
43225;DHT22;28834;48.720;9.208;2022-09-09T03:43:57;14.00;99.90
43225;DHT22;28834;48.720;9.208;2022-09-09T03:46:24;14.00;99.90
43225;DHT22;28834;48.720;9.208;2022-09-09T03:48:50;14.00;99.90
43225;DHT22;28834;48.720;9.208;2022-09-09T03:51:17;14.00;99.90
43225;DHT22;28834;48.720;9.208;2022-09-09T03:53:43;14.00;99.90
43225;DHT22;28834;48.720;9.208;2022-09-09T03:56:09;14.00;99.90
43225;DHT22;28834;48.720;9.208;2022-09-09T03:58:36;14.00;99.90
43225;DHT22;28834;48.720;9.208;2022-09-09T04:01:10;13.90;99.90
43225;DHT22;28834;48.720;9.208;2022-09-09T04:03:38;13.90;99.90
43225;DHT22;28834;48.720;9.208;2022-09-09T04:06:05;13.90;99.90
43225;DHT22;28834;48.720;9.208;2022-09-09T04:08:32;13.90;99.90
43225;DHT22;28834;48.720;9.208;2022-09-09T04:10:58;13.90;99.90
43225;DHT22;28834;48.720;9.208;2022-09-09T04:13:24;13.90;99.90
43225;DHT22;28834;48.720;9.208;2022-09-09T04:15:55;13.90;99.90
43225;DHT22;28834;48.720;9.208;2022-09-09T04:18:21;13.90;99.90
43225;DHT22;28834;48.720;9.208;2022-09-09T04:20:48;13.90;99.90
43225;DHT22;28834;48.720;9.208;2022-09-09T04:23:15;13.90;99.90
43225;DHT22;28834;48.720;9.208;2022-09-09T04:25:49;13.90;99.90
43225;DHT22;28834;48.720;9.208;2022-09-09T04:28:16;13.90;99.90
43225;DHT22;28834;48.720;9.208;2022-09-09T04:30:42;13.90;99.90
43225;DHT22;28834;48.720;9.208;2022-09-09T04:33:08;13.90;99.90
43225;DHT22;28834;48.720;9.208;2022-09-09T04:35:35;13.90;99.90
43225;DHT22;28834;48.720;9.208;2022-09-09T04:38:01;13.90;99.90
43225;DHT22;28834;48.720;9.208;2022-09-09T04:40:31;13.80;99.90
43225;DHT22;28834;48.720;9.208;2022-09-09T04:43:01;13.90;99.90
43225;DHT22;28834;48.720;9.208;2022-09-09T04:45:26;13.90;99.90
43225;DHT22;28834;48.720;9.208;2022-09-09T04:47:52;14.00;99.90
43225;DHT22;28834;48.720;9.208;2022-09-09T04:50:19;14.00;99.90
43225;DHT22;28834;48.720;9.208;2022-09-09T04:52:44;14.00;99.90
43225;DHT22;28834;48.720;9.208;2022-09-09T04:55:10;14.00;99.90
43225;DHT22;28834;48.720;9.208;2022-09-09T04:57:38;14.00;99.90
43225;DHT22;28834;48.720;9.208;2022-09-09T05:00:04;14.00;99.90
43225;DHT22;28834;48.720;9.208;2022-09-09T05:02:30;14.00;99.90
43225;DHT22;28834;48.720;9.208;2022-09-09T05:04:56;13.90;99.90
43225;DHT22;28834;48.720;9.208;2022-09-09T05:07:21;13.90;99.90
43225;DHT22;28834;48.720;9.208;2022-09-09T05:09:47;13.80;99.90
43225;DHT22;28834;48.720;9.208;2022-09-09T05:12:15;13.90;99.90
43225;DHT22;28834;48.720;9.208;2022-09-09T05:14:42;13.90;99.90
43225;DHT22;28834;48.720;9.208;2022-09-09T05:17:08;13.80;99.90
43225;DHT22;28834;48.720;9.208;2022-09-09T05:19:33;13.70;99.90
43225;DHT22;28834;48.720;9.208;2022-09-09T05:21:59;13.80;99.90
43225;DHT22;28834;48.720;9.208;2022-09-09T05:24:26;13.80;99.90
43225;DHT22;28834;48.720;9.208;2022-09-09T05:26:52;13.80;99.90
43225;DHT22;28834;48.720;9.208;2022-09-09T05:29:17;13.90;99.90
43225;DHT22;28834;48.720;9.208;2022-09-09T05:31:45;13.90;99.90
43225;DHT22;28834;48.720;9.208;2022-09-09T05:34:10;14.00;99.90
43225;DHT22;28834;48.720;9.208;2022-09-09T05:36:36;14.10;99.90
43225;DHT22;28834;48.720;9.208;2022-09-09T05:39:03;14.20;99.90
43225;DHT22;28834;48.720;9.208;2022-09-09T05:41:29;14.30;99.90
43225;DHT22;28834;48.720;9.208;2022-09-09T05:43:55;14.40;99.90
43225;DHT22;28834;48.720;9.208;2022-09-09T05:46:22;14.50;99.90
43225;DHT22;28834;48.720;9.208;2022-09-09T05:48:49;14.60;99.90
43225;DHT22;28834;48.720;9.208;2022-09-09T05:51:19;14.60;99.90
43225;DHT22;28834;48.720;9.208;2022-09-09T05:53:47;14.60;99.90
43225;DHT22;28834;48.720;9.208;2022-09-09T05:56:14;14.70;99.90
43225;DHT22;28834;48.720;9.208;2022-09-09T05:58:41;14.70;99.90
43225;DHT22;28834;48.720;9.208;2022-09-09T06:01:12;14.70;99.90
43225;DHT22;28834;48.720;9.208;2022-09-09T06:03:42;14.70;99.90
43225;DHT22;28834;48.720;9.208;2022-09-09T06:06:10;14.70;99.90
43225;DHT22;28834;48.720;9.208;2022-09-09T06:08:38;14.80;99.90
43225;DHT22;28834;48.720;9.208;2022-09-09T06:11:07;14.80;99.90
43225;DHT22;28834;48.720;9.208;2022-09-09T06:13:33;14.90;99.90
43225;DHT22;28834;48.720;9.208;2022-09-09T06:15:59;14.90;99.90
43225;DHT22;28834;48.720;9.208;2022-09-09T06:18:25;14.90;99.90
43225;DHT22;28834;48.720;9.208;2022-09-09T06:21:02;15.00;99.90
43225;DHT22;28834;48.720;9.208;2022-09-09T06:23:29;15.00;99.90
43225;DHT22;28834;48.720;9.208;2022-09-09T06:26:18;15.00;99.90
43225;DHT22;28834;48.720;9.208;2022-09-09T06:28:45;15.10;99.90
43225;DHT22;28834;48.720;9.208;2022-09-09T06:31:13;15.10;99.90
43225;DHT22;28834;48.720;9.208;2022-09-09T06:33:40;15.20;99.90
43225;DHT22;28834;48.720;9.208;2022-09-09T06:36:18;15.20;99.90
43225;DHT22;28834;48.720;9.208;2022-09-09T06:38:44;15.30;99.90
43225;DHT22;28834;48.720;9.208;2022-09-09T06:41:11;15.40;99.90
43225;DHT22;28834;48.720;9.208;2022-09-09T06:43:37;15.40;99.90
43225;DHT22;28834;48.720;9.208;2022-09-09T06:46:05;15.50;99.90
43225;DHT22;28834;48.720;9.208;2022-09-09T06:48:31;15.40;99.90
43225;DHT22;28834;48.720;9.208;2022-09-09T06:51:04;15.50;99.90
43225;DHT22;28834;48.720;9.208;2022-09-09T06:53:30;15.60;99.90
43225;DHT22;28834;48.720;9.208;2022-09-09T06:56:00;15.60;99.90
43225;DHT22;28834;48.720;9.208;2022-09-09T06:58:26;15.70;99.90
43225;DHT22;28834;48.720;9.208;2022-09-09T07:00:52;15.80;99.90
43225;DHT22;28834;48.720;9.208;2022-09-09T07:03:18;15.90;99.90
43225;DHT22;28834;48.720;9.208;2022-09-09T07:05:43;15.90;99.90
43225;DHT22;28834;48.720;9.208;2022-09-09T07:08:18;15.90;99.90
43225;DHT22;28834;48.720;9.208;2022-09-09T07:10:44;16.00;99.90
43225;DHT22;28834;48.720;9.208;2022-09-09T07:13:09;16.10;99.90
43225;DHT22;28834;48.720;9.208;2022-09-09T07:15:35;16.20;99.90
43225;DHT22;28834;48.720;9.208;2022-09-09T07:18:01;16.20;99.90
43225;DHT22;28834;48.720;9.208;2022-09-09T07:20:27;16.30;99.90
43225;DHT22;28834;48.720;9.208;2022-09-09T07:22:55;16.40;99.90
43225;DHT22;28834;48.720;9.208;2022-09-09T07:25:20;16.50;99.90
43225;DHT22;28834;48.720;9.208;2022-09-09T07:27:47;16.60;99.90
43225;DHT22;28834;48.720;9.208;2022-09-09T07:30:12;16.60;99.90
43225;DHT22;28834;48.720;9.208;2022-09-09T07:32:38;16.70;99.90
43225;DHT22;28834;48.720;9.208;2022-09-09T07:35:05;16.80;99.90
43225;DHT22;28834;48.720;9.208;2022-09-09T07:37:30;16.80;99.90
43225;DHT22;28834;48.720;9.208;2022-09-09T07:39:56;16.90;99.90
43225;DHT22;28834;48.720;9.208;2022-09-09T07:42:21;16.90;99.90
43225;DHT22;28834;48.720;9.208;2022-09-09T07:44:47;17.10;99.90
43225;DHT22;28834;48.720;9.208;2022-09-09T07:47:13;17.40;99.90
43225;DHT22;28834;48.720;9.208;2022-09-09T07:49:38;17.70;99.90
43225;DHT22;28834;48.720;9.208;2022-09-09T07:52:04;17.80;99.90
43225;DHT22;28834;48.720;9.208;2022-09-09T07:54:29;17.90;99.90
43225;DHT22;28834;48.720;9.208;2022-09-09T07:56:55;18.10;99.90
43225;DHT22;28834;48.720;9.208;2022-09-09T07:59:20;18.50;99.90
43225;DHT22;28834;48.720;9.208;2022-09-09T08:01:49;18.80;99.90
43225;DHT22;28834;48.720;9.208;2022-09-09T08:04:17;19.10;99.90
43225;DHT22;28834;48.720;9.208;2022-09-09T08:06:48;19.30;99.90
43225;DHT22;28834;48.720;9.208;2022-09-09T08:09:15;19.50;99.90
43225;DHT22;28834;48.720;9.208;2022-09-09T08:11:41;19.50;99.90
43225;DHT22;28834;48.720;9.208;2022-09-09T08:14:08;19.40;99.90
43225;DHT22;28834;48.720;9.208;2022-09-09T08:16:37;19.20;99.90
43225;DHT22;28834;48.720;9.208;2022-09-09T08:19:04;19.20;99.90
43225;DHT22;28834;48.720;9.208;2022-09-09T08:21:31;19.30;99.90
43225;DHT22;28834;48.720;9.208;2022-09-09T08:24:00;19.60;99.90
43225;DHT22;28834;48.720;9.208;2022-09-09T08:26:31;19.70;99.90
43225;DHT22;28834;48.720;9.208;2022-09-09T08:28:58;20.00;99.90
43225;DHT22;28834;48.720;9.208;2022-09-09T08:31:30;20.20;99.90
43225;DHT22;28834;48.720;9.208;2022-09-09T08:33:57;20.50;99.90
43225;DHT22;28834;48.720;9.208;2022-09-09T08:36:26;20.40;99.90
43225;DHT22;28834;48.720;9.208;2022-09-09T08:38:53;20.60;99.90
43225;DHT22;28834;48.720;9.208;2022-09-09T08:41:37;20.70;99.90
43225;DHT22;28834;48.720;9.208;2022-09-09T08:55:24;20.70;99.90
43225;DHT22;28834;48.720;9.208;2022-09-09T08:57:53;20.90;99.90
43225;DHT22;28834;48.720;9.208;2022-09-09T09:00:20;21.10;99.70
43225;DHT22;28834;48.720;9.208;2022-09-09T09:03:14;21.20;98.60
43225;DHT22;28834;48.720;9.208;2022-09-09T09:05:47;21.20;99.60
43225;DHT22;28834;48.720;9.208;2022-09-09T09:11:04;21.40;98.10
43225;DHT22;28834;48.720;9.208;2022-09-09T09:13:54;21.20;97.60
43225;DHT22;28834;48.720;9.208;2022-09-09T09:19:13;21.00;98.60
43225;DHT22;28834;48.720;9.208;2022-09-09T09:21:43;21.30;99.10
43225;DHT22;28834;48.720;9.208;2022-09-09T09:24:20;21.60;99.40
43225;DHT22;28834;48.720;9.208;2022-09-09T09:26:47;21.50;98.60
43225;DHT22;28834;48.720;9.208;2022-09-09T09:29:16;21.30;98.70
43225;DHT22;28834;48.720;9.208;2022-09-09T09:31:52;20.70;99.90
43225;DHT22;28834;48.720;9.208;2022-09-09T09:34:20;19.70;99.90
43225;DHT22;28834;48.720;9.208;2022-09-09T09:36:56;18.40;99.90
43225;DHT22;28834;48.720;9.208;2022-09-09T09:39:39;17.70;99.90
43225;DHT22;28834;48.720;9.208;2022-09-09T09:42:13;17.10;99.90
43225;DHT22;28834;48.720;9.208;2022-09-09T09:44:40;16.70;99.90
43225;DHT22;28834;48.720;9.208;2022-09-09T09:47:22;16.60;99.90
43225;DHT22;28834;48.720;9.208;2022-09-09T09:49:57;16.90;99.90
43225;DHT22;28834;48.720;9.208;2022-09-09T09:52:29;17.30;99.90
43225;DHT22;28834;48.720;9.208;2022-09-09T09:54:57;17.70;99.90
43225;DHT22;28834;48.720;9.208;2022-09-09T09:57:29;18.10;99.90
43225;DHT22;28834;48.720;9.208;2022-09-09T10:02:41;18.70;99.90
43225;DHT22;28834;48.720;9.208;2022-09-09T10:07:42;18.90;99.90
43225;DHT22;28834;48.720;9.208;2022-09-09T10:10:21;19.20;99.90
43225;DHT22;28834;48.720;9.208;2022-09-09T10:15:40;19.50;99.90
43225;DHT22;28834;48.720;9.208;2022-09-09T10:18:34;19.40;99.90
43225;DHT22;28834;48.720;9.208;2022-09-09T10:21:19;19.40;99.90
43225;DHT22;28834;48.720;9.208;2022-09-09T10:24:12;19.60;99.90
43225;DHT22;28834;48.720;9.208;2022-09-09T10:26:52;19.80;99.90
43225;DHT22;28834;48.720;9.208;2022-09-09T10:32:41;20.30;99.90
43225;DHT22;28834;48.720;9.208;2022-09-09T10:35:27;20.40;99.90
43225;DHT22;28834;48.720;9.208;2022-09-09T10:38:16;20.20;99.90
43225;DHT22;28834;48.720;9.208;2022-09-09T10:46:23;20.60;99.90
43225;DHT22;28834;48.720;9.208;2022-09-09T10:51:58;20.90;99.90
43225;DHT22;28834;48.720;9.208;2022-09-09T10:57:33;21.10;99.90
43225;DHT22;28834;48.720;9.208;2022-09-09T11:00:06;21.10;99.90
43225;DHT22;28834;48.720;9.208;2022-09-09T11:02:33;20.80;99.90
43225;DHT22;28834;48.720;9.208;2022-09-09T11:07:40;20.20;99.90
43225;DHT22;28834;48.720;9.208;2022-09-09T11:13:02;20.30;99.90
43225;DHT22;28834;48.720;9.208;2022-09-09T11:15:39;20.20;99.90
43225;DHT22;28834;48.720;9.208;2022-09-09T11:18:13;20.10;99.90
43225;DHT22;28834;48.720;9.208;2022-09-09T11:20:39;20.00;99.90
43225;DHT22;28834;48.720;9.208;2022-09-09T11:23:13;19.70;99.90
43225;DHT22;28834;48.720;9.208;2022-09-09T11:25:56;19.60;99.90
43225;DHT22;28834;48.720;9.208;2022-09-09T11:28:35;19.50;99.90
43225;DHT22;28834;48.720;9.208;2022-09-09T11:36:52;18.90;99.90
43225;DHT22;28834;48.720;9.208;2022-09-09T11:41:50;18.40;99.90
43225;DHT22;28834;48.720;9.208;2022-09-09T11:44:26;18.20;99.90
43225;DHT22;28834;48.720;9.208;2022-09-09T11:46:53;18.10;99.90
43225;DHT22;28834;48.720;9.208;2022-09-09T11:49:42;18.20;99.90
43225;DHT22;28834;48.720;9.208;2022-09-09T11:52:21;18.40;99.90
43225;DHT22;28834;48.720;9.208;2022-09-09T11:54:49;18.60;99.90
43225;DHT22;28834;48.720;9.208;2022-09-09T11:57:25;18.60;99.90
43225;DHT22;28834;48.720;9.208;2022-09-09T11:59:51;18.70;99.90
43225;DHT22;28834;48.720;9.208;2022-09-09T12:02:19;19.00;99.90
43225;DHT22;28834;48.720;9.208;2022-09-09T12:05:06;19.10;99.90
43225;DHT22;28834;48.720;9.208;2022-09-09T12:07:40;19.50;99.90
43225;DHT22;28834;48.720;9.208;2022-09-09T12:10:26;19.60;99.40
43225;DHT22;28834;48.720;9.208;2022-09-09T12:12:52;19.40;99.30
43225;DHT22;28834;48.720;9.208;2022-09-09T12:15:20;19.10;99.90
43225;DHT22;28834;48.720;9.208;2022-09-09T12:17:51;19.00;99.90
43225;DHT22;28834;48.720;9.208;2022-09-09T12:25:53;19.10;99.90
43225;DHT22;28834;48.720;9.208;2022-09-09T12:28:24;19.30;99.90
43225;DHT22;28834;48.720;9.208;2022-09-09T12:33:39;19.90;98.80
43225;DHT22;28834;48.720;9.208;2022-09-09T12:36:14;20.20;99.30
43225;DHT22;28834;48.720;9.208;2022-09-09T12:38:42;20.30;96.80
43225;DHT22;28834;48.720;9.208;2022-09-09T12:41:19;20.30;95.40
43225;DHT22;28834;48.720;9.208;2022-09-09T12:43:45;20.40;95.10
43225;DHT22;28834;48.720;9.208;2022-09-09T12:48:47;20.60;95.50
43225;DHT22;28834;48.720;9.208;2022-09-09T12:51:26;20.40;94.50
43225;DHT22;28834;48.720;9.208;2022-09-09T12:53:52;20.30;95.80
43225;DHT22;28834;48.720;9.208;2022-09-09T12:56:29;20.40;96.70
43225;DHT22;28834;48.720;9.208;2022-09-09T12:58:57;20.50;96.30
43225;DHT22;28834;48.720;9.208;2022-09-09T13:01:31;20.60;95.10
43225;DHT22;28834;48.720;9.208;2022-09-09T13:03:58;20.60;96.30
43225;DHT22;28834;48.720;9.208;2022-09-09T13:06:32;20.50;95.60
43225;DHT22;28834;48.720;9.208;2022-09-09T13:09:00;20.30;95.90
43225;DHT22;28834;48.720;9.208;2022-09-09T13:11:48;20.10;95.80
43225;DHT22;28834;48.720;9.208;2022-09-09T13:14:26;19.90;98.90
43225;DHT22;28834;48.720;9.208;2022-09-09T13:16:56;19.80;98.00
43225;DHT22;28834;48.720;9.208;2022-09-09T13:19:22;19.80;96.30
43225;DHT22;28834;48.720;9.208;2022-09-09T13:21:51;19.90;95.80
43225;DHT22;28834;48.720;9.208;2022-09-09T13:24:33;20.10;95.40
43225;DHT22;28834;48.720;9.208;2022-09-09T13:27:04;20.10;96.50
43225;DHT22;28834;48.720;9.208;2022-09-09T13:29:31;20.30;94.80
43225;DHT22;28834;48.720;9.208;2022-09-09T13:32:16;20.60;96.00
43225;DHT22;28834;48.720;9.208;2022-09-09T13:34:55;20.90;93.70
43225;DHT22;28834;48.720;9.208;2022-09-09T13:37:39;21.10;96.10
43225;DHT22;28834;48.720;9.208;2022-09-09T13:40:14;21.30;93.80
43225;DHT22;28834;48.720;9.208;2022-09-09T13:42:42;21.40;92.60
43225;DHT22;28834;48.720;9.208;2022-09-09T13:45:18;21.50;91.70
43225;DHT22;28834;48.720;9.208;2022-09-09T13:47:46;21.50;91.10
43225;DHT22;28834;48.720;9.208;2022-09-09T13:50:27;21.40;93.40
43225;DHT22;28834;48.720;9.208;2022-09-09T13:52:55;21.20;93.00
43225;DHT22;28834;48.720;9.208;2022-09-09T13:55:27;21.20;94.40
43225;DHT22;28834;48.720;9.208;2022-09-09T13:57:58;21.30;94.60
43225;DHT22;28834;48.720;9.208;2022-09-09T14:00:26;21.20;94.00
43225;DHT22;28834;48.720;9.208;2022-09-09T14:02:51;21.30;92.20
43225;DHT22;28834;48.720;9.208;2022-09-09T14:05:18;21.30;91.40
43225;DHT22;28834;48.720;9.208;2022-09-09T14:07:44;21.20;92.60
43225;DHT22;28834;48.720;9.208;2022-09-09T14:10:11;21.20;93.60
43225;DHT22;28834;48.720;9.208;2022-09-09T14:12:37;21.20;93.30
43225;DHT22;28834;48.720;9.208;2022-09-09T14:15:04;21.30;91.90
43225;DHT22;28834;48.720;9.208;2022-09-09T14:17:30;21.50;91.90
43225;DHT22;28834;48.720;9.208;2022-09-09T14:19:57;21.60;90.80
43225;DHT22;28834;48.720;9.208;2022-09-09T14:22:23;21.70;90.60
43225;DHT22;28834;48.720;9.208;2022-09-09T14:24:49;21.70;90.30
43225;DHT22;28834;48.720;9.208;2022-09-09T14:27:14;21.90;90.10
43225;DHT22;28834;48.720;9.208;2022-09-09T14:29:40;21.80;88.00
43225;DHT22;28834;48.720;9.208;2022-09-09T14:32:06;21.70;90.80
43225;DHT22;28834;48.720;9.208;2022-09-09T14:34:31;21.70;89.10
43225;DHT22;28834;48.720;9.208;2022-09-09T14:37:00;21.90;88.90
43225;DHT22;28834;48.720;9.208;2022-09-09T14:39:26;22.30;86.40
43225;DHT22;28834;48.720;9.208;2022-09-09T14:41:52;22.60;86.00
43225;DHT22;28834;48.720;9.208;2022-09-09T14:44:17;22.80;81.70
43225;DHT22;28834;48.720;9.208;2022-09-09T14:46:43;22.90;82.40
43225;DHT22;28834;48.720;9.208;2022-09-09T14:49:09;23.00;78.20
43225;DHT22;28834;48.720;9.208;2022-09-09T14:51:35;23.10;79.60
43225;DHT22;28834;48.720;9.208;2022-09-09T14:54:01;22.90;73.90
43225;DHT22;28834;48.720;9.208;2022-09-09T14:56:29;22.50;77.00
43225;DHT22;28834;48.720;9.208;2022-09-09T14:58:56;22.30;77.80
43225;DHT22;28834;48.720;9.208;2022-09-09T15:01:24;22.00;78.60
43225;DHT22;28834;48.720;9.208;2022-09-09T15:03:53;21.70;77.30
43225;DHT22;28834;48.720;9.208;2022-09-09T15:06:20;21.60;79.50
43225;DHT22;28834;48.720;9.208;2022-09-09T15:08:46;21.50;79.30
43225;DHT22;28834;48.720;9.208;2022-09-09T15:11:13;21.30;77.60
43225;DHT22;28834;48.720;9.208;2022-09-09T15:13:41;21.10;80.80
43225;DHT22;28834;48.720;9.208;2022-09-09T15:16:15;21.00;82.00
43225;DHT22;28834;48.720;9.208;2022-09-09T15:18:42;21.00;82.90
43225;DHT22;28834;48.720;9.208;2022-09-09T15:21:15;20.70;81.70
43225;DHT22;28834;48.720;9.208;2022-09-09T15:23:42;20.60;82.20
43225;DHT22;28834;48.720;9.208;2022-09-09T15:26:08;20.50;84.70
43225;DHT22;28834;48.720;9.208;2022-09-09T15:28:36;20.50;83.30
43225;DHT22;28834;48.720;9.208;2022-09-09T15:31:07;20.60;85.10
43225;DHT22;28834;48.720;9.208;2022-09-09T15:33:34;20.50;84.80
43225;DHT22;28834;48.720;9.208;2022-09-09T15:36:21;20.50;83.60
43225;DHT22;28834;48.720;9.208;2022-09-09T15:38:47;20.50;85.80
43225;DHT22;28834;48.720;9.208;2022-09-09T15:41:14;20.40;88.10
43225;DHT22;28834;48.720;9.208;2022-09-09T15:43:47;20.40;86.90
43225;DHT22;28834;48.720;9.208;2022-09-09T15:46:37;20.40;90.10
43225;DHT22;28834;48.720;9.208;2022-09-09T15:49:13;20.30;85.60
43225;DHT22;28834;48.720;9.208;2022-09-09T15:51:41;20.10;85.10
43225;DHT22;28834;48.720;9.208;2022-09-09T15:54:08;20.00;85.30
43225;DHT22;28834;48.720;9.208;2022-09-09T15:56:34;19.90;84.30
43225;DHT22;28834;48.720;9.208;2022-09-09T15:59:00;19.80;86.10
43225;DHT22;28834;48.720;9.208;2022-09-09T16:01:29;19.70;84.90
43225;DHT22;28834;48.720;9.208;2022-09-09T16:03:56;19.60;86.70
43225;DHT22;28834;48.720;9.208;2022-09-09T16:06:22;19.60;87.30
43225;DHT22;28834;48.720;9.208;2022-09-09T16:08:50;19.50;88.10
43225;DHT22;28834;48.720;9.208;2022-09-09T16:11:19;19.40;85.40
43225;DHT22;28834;48.720;9.208;2022-09-09T16:13:46;19.40;86.40
43225;DHT22;28834;48.720;9.208;2022-09-09T16:16:15;19.40;87.10
43225;DHT22;28834;48.720;9.208;2022-09-09T16:18:43;19.30;87.60
43225;DHT22;28834;48.720;9.208;2022-09-09T16:21:14;19.30;88.50
43225;DHT22;28834;48.720;9.208;2022-09-09T16:23:40;19.20;89.90
43225;DHT22;28834;48.720;9.208;2022-09-09T16:26:06;19.20;88.00
43225;DHT22;28834;48.720;9.208;2022-09-09T16:28:31;19.20;90.10
43225;DHT22;28834;48.720;9.208;2022-09-09T16:30:57;19.10;90.30
43225;DHT22;28834;48.720;9.208;2022-09-09T16:33:26;19.10;91.70
43225;DHT22;28834;48.720;9.208;2022-09-09T16:35:52;19.10;91.50
43225;DHT22;28834;48.720;9.208;2022-09-09T16:38:17;19.00;91.20
43225;DHT22;28834;48.720;9.208;2022-09-09T16:40:43;19.00;92.00
43225;DHT22;28834;48.720;9.208;2022-09-09T16:43:09;19.00;92.00
43225;DHT22;28834;48.720;9.208;2022-09-09T16:45:44;18.90;92.30
43225;DHT22;28834;48.720;9.208;2022-09-09T16:48:11;18.90;91.30
43225;DHT22;28834;48.720;9.208;2022-09-09T16:50:37;19.00;91.90
43225;DHT22;28834;48.720;9.208;2022-09-09T16:53:04;19.00;93.20
43225;DHT22;28834;48.720;9.208;2022-09-09T16:55:31;18.90;93.20
43225;DHT22;28834;48.720;9.208;2022-09-09T16:57:57;18.90;92.10
43225;DHT22;28834;48.720;9.208;2022-09-09T17:00:23;18.80;92.60
43225;DHT22;28834;48.720;9.208;2022-09-09T17:02:48;18.70;93.20
43225;DHT22;28834;48.720;9.208;2022-09-09T17:05:14;18.70;94.70
43225;DHT22;28834;48.720;9.208;2022-09-09T17:07:39;18.60;94.60
43225;DHT22;28834;48.720;9.208;2022-09-09T17:10:06;18.50;95.30
43225;DHT22;28834;48.720;9.208;2022-09-09T17:12:32;18.40;95.50
43225;DHT22;28834;48.720;9.208;2022-09-09T17:14:58;18.30;95.80
43225;DHT22;28834;48.720;9.208;2022-09-09T17:17:25;18.20;95.60
43225;DHT22;28834;48.720;9.208;2022-09-09T17:19:52;18.10;95.90
43225;DHT22;28834;48.720;9.208;2022-09-09T17:22:17;18.00;95.70
43225;DHT22;28834;48.720;9.208;2022-09-09T17:24:44;18.00;96.40
43225;DHT22;28834;48.720;9.208;2022-09-09T17:27:09;17.80;96.90
43225;DHT22;28834;48.720;9.208;2022-09-09T17:29:35;17.70;97.90